createdAt,value
2022-08-23T00:00:41.881Z,4.50
2022-08-23T00:01:40.884Z,4.40
2022-08-23T00:02:40.902Z,4.70
2022-08-23T00:03:40.845Z,4.60
2022-08-23T00:04:40.894Z,4.80
2022-08-23T00:05:41.784Z,4.40
2022-08-23T00:06:40.830Z,4.40
2022-08-23T00:07:40.781Z,4.30
2022-08-23T00:08:44.825Z,4.40
2022-08-23T00:09:41.737Z,4.10
2022-08-23T00:10:40.721Z,4.30
2022-08-23T00:11:40.758Z,4.30
2022-08-23T00:12:40.713Z,3.90
2022-08-23T00:13:48.146Z,4.00
2022-08-23T00:14:41.708Z,3.60
2022-08-23T00:15:40.733Z,4.00
2022-08-23T00:16:40.801Z,4.20
2022-08-23T00:17:40.676Z,4.30
2022-08-23T00:18:40.664Z,4.50
2022-08-23T00:19:41.641Z,4.00
2022-08-23T00:20:40.661Z,4.40
2022-08-23T00:21:40.659Z,4.50
2022-08-23T00:22:40.701Z,4.10
2022-08-23T00:23:40.632Z,4.40
2022-08-23T00:24:41.046Z,4.90
2022-08-23T00:25:40.670Z,4.60
2022-08-23T00:26:40.614Z,5.00
2022-08-23T00:27:40.609Z,4.70
2022-08-23T00:28:40.599Z,4.50
2022-08-23T00:29:40.634Z,5.40
2022-08-23T00:30:40.549Z,4.40
2022-08-23T00:31:40.536Z,4.60
2022-08-23T00:32:40.515Z,4.90
2022-08-23T00:33:40.710Z,4.60
2022-08-23T00:34:40.488Z,4.80
2022-08-23T00:35:40.491Z,4.40
2022-08-23T00:36:40.516Z,5.10
2022-08-23T00:37:40.457Z,4.90
2022-08-23T00:38:40.845Z,4.60
2022-08-23T00:39:40.590Z,4.90
2022-08-23T00:40:40.478Z,4.80
2022-08-23T00:41:40.402Z,4.80
2022-08-23T00:42:40.896Z,4.90
2022-08-23T00:43:40.401Z,5.00
2022-08-23T00:44:40.451Z,5.00
2022-08-23T00:45:40.500Z,4.90
2022-08-23T00:46:40.348Z,4.60
2022-08-23T00:47:40.378Z,4.70
2022-08-23T00:48:40.341Z,4.30
2022-08-23T00:49:40.329Z,4.50
2022-08-23T00:50:40.339Z,4.10
2022-08-23T00:51:52.792Z,4.00
2022-08-23T00:52:41.334Z,4.20
2022-08-23T00:53:40.342Z,4.40
2022-08-23T00:54:40.333Z,4.30
2022-08-23T00:55:40.287Z,4.20
2022-08-23T00:56:40.282Z,4.30
2022-08-23T00:57:40.257Z,4.50
2022-08-23T00:58:40.259Z,4.50
2022-08-23T00:59:40.196Z,4.20
2022-08-23T01:00:40.230Z,4.40
2022-08-23T01:01:40.266Z,4.50
2022-08-23T01:02:40.288Z,4.40
2022-08-23T01:03:40.188Z,4.30
2022-08-23T01:04:40.209Z,4.20
2022-08-23T01:05:40.144Z,4.30
2022-08-23T01:06:40.124Z,4.70
2022-08-23T01:07:40.238Z,4.30
2022-08-23T01:08:40.114Z,4.30
2022-08-23T01:09:40.095Z,4.70
2022-08-23T01:10:40.152Z,4.50
2022-08-23T01:11:40.277Z,4.60
2022-08-23T01:12:40.140Z,4.20
2022-08-23T01:13:40.068Z,4.40
2022-08-23T01:14:40.123Z,4.80
2022-08-23T01:15:40.091Z,4.60
2022-08-23T01:16:40.065Z,4.40
2022-08-23T01:17:40.071Z,4.60
2022-08-23T01:18:40.024Z,4.60
2022-08-23T01:19:40.008Z,4.50
2022-08-23T01:20:40.230Z,4.40
2022-08-23T01:21:41.388Z,4.70
2022-08-23T01:22:40.025Z,4.50
2022-08-23T01:23:40.016Z,4.70
2022-08-23T01:24:59.594Z,4.60
2022-08-23T01:25:40.968Z,4.40
2022-08-23T01:26:40.030Z,4.30
2022-08-23T01:27:39.978Z,4.40
2022-08-23T01:28:39.983Z,4.50
2022-08-23T01:29:39.921Z,4.30
2022-08-23T01:30:39.909Z,4.40
2022-08-23T01:31:39.984Z,4.00
2022-08-23T01:32:40.026Z,4.30
2022-08-23T01:33:39.870Z,4.40
2022-08-23T01:34:45.899Z,4.40
2022-08-23T01:35:40.819Z,4.20
2022-08-23T01:36:39.869Z,4.30
2022-08-23T01:37:39.823Z,4.20
2022-08-23T01:38:39.811Z,4.40
2022-08-23T01:39:39.825Z,4.10
2022-08-23T01:40:39.805Z,4.30
2022-08-23T01:41:39.777Z,4.30
2022-08-23T01:42:39.783Z,4.30
2022-08-23T01:43:39.776Z,4.40
2022-08-23T01:44:39.714Z,4.40
2022-08-23T01:45:39.938Z,4.60
2022-08-23T01:46:39.751Z,4.30
2022-08-23T01:47:39.695Z,4.20
2022-08-23T01:48:39.707Z,4.10
2022-08-23T01:49:39.665Z,4.80
2022-08-23T01:50:39.643Z,4.50
2022-08-23T01:51:39.649Z,4.40
2022-08-23T01:52:57.146Z,4.40
2022-08-23T01:53:40.677Z,4.50
2022-08-23T01:54:39.689Z,4.30
2022-08-23T01:55:39.600Z,4.50
2022-08-23T01:56:39.654Z,4.50
2022-08-23T01:57:39.641Z,4.70
2022-08-23T01:58:39.603Z,4.70
2022-08-23T01:59:39.575Z,4.70
2022-08-23T02:00:39.541Z,4.80
2022-08-23T02:01:39.584Z,4.20
2022-08-23T02:02:39.542Z,4.50
2022-08-23T02:03:39.548Z,4.20
2022-08-23T02:04:39.500Z,4.10
2022-08-23T02:05:39.544Z,4.90
2022-08-23T02:06:39.569Z,4.30
2022-08-23T02:07:39.551Z,4.30
2022-08-23T02:08:39.442Z,4.80
2022-08-23T02:09:39.452Z,4.30
2022-08-23T02:10:39.427Z,4.40
2022-08-23T02:11:39.492Z,4.80
2022-08-23T02:12:39.447Z,4.60
2022-08-23T02:13:39.538Z,4.90
2022-08-23T02:14:40.776Z,4.50
2022-08-23T02:15:39.425Z,4.50
2022-08-23T02:16:39.387Z,4.70
2022-08-23T02:17:39.354Z,4.50
2022-08-23T02:18:39.394Z,4.70
2022-08-23T02:19:39.363Z,4.60
2022-08-23T02:20:39.374Z,4.70
2022-08-23T02:21:39.387Z,5.00
2022-08-23T02:22:39.354Z,5.30
2022-08-23T02:23:39.341Z,4.80
2022-08-23T02:24:39.272Z,4.90
2022-08-23T02:25:39.385Z,4.60
2022-08-23T02:26:39.262Z,5.00
2022-08-23T02:27:39.268Z,4.80
2022-08-23T02:28:39.281Z,4.90
2022-08-23T02:29:39.809Z,5.20
2022-08-23T02:30:39.304Z,5.20
2022-08-23T02:31:39.296Z,5.00
2022-08-23T02:32:39.208Z,5.20
2022-08-23T02:34:55.682Z,5.30
2022-08-23T02:35:49.156Z,5.70
2022-08-23T02:36:49.225Z,5.30
2022-08-23T02:37:49.134Z,5.40
2022-08-23T02:38:49.158Z,5.20
2022-08-23T02:39:49.263Z,5.40
2022-08-23T02:40:52.931Z,5.90
2022-08-23T02:41:50.174Z,5.60
2022-08-23T02:42:49.163Z,5.40
2022-08-23T02:43:49.085Z,5.30
2022-08-23T02:44:49.061Z,4.80
2022-08-23T02:45:49.045Z,5.30
2022-08-23T02:46:49.105Z,5.20
2022-08-23T02:47:49.045Z,5.20
2022-08-23T02:48:49.071Z,5.40
2022-08-23T02:49:48.998Z,5.60
2022-08-23T02:50:49.041Z,5.10
2022-08-23T02:51:49.100Z,4.90
2022-08-23T02:52:48.966Z,4.70
2022-08-23T02:53:49.009Z,5.00
2022-08-23T02:54:48.964Z,4.90
2022-08-23T02:55:48.960Z,4.90
2022-08-23T02:56:48.982Z,4.80
2022-08-23T02:57:48.976Z,5.00
2022-08-23T02:58:54.254Z,5.00
2022-08-23T02:59:49.905Z,4.80
2022-08-23T03:00:48.938Z,4.70
2022-08-23T03:01:48.882Z,4.90
2022-08-23T03:02:48.908Z,5.00
2022-08-23T03:03:48.887Z,4.90
2022-08-23T03:04:48.864Z,4.90
2022-08-23T03:05:49.002Z,5.10
2022-08-23T03:06:48.830Z,5.00
2022-08-23T03:07:48.845Z,5.30
2022-08-23T03:08:48.806Z,5.30
2022-08-23T03:09:48.789Z,5.30
2022-08-23T03:10:48.797Z,5.20
2022-08-23T03:11:49.045Z,5.00
2022-08-23T03:12:48.774Z,5.00
2022-08-23T03:13:48.840Z,5.00
2022-08-23T03:14:48.781Z,4.80
2022-08-23T03:15:48.736Z,4.80
2022-08-23T03:16:48.727Z,5.10
2022-08-23T03:17:48.739Z,4.70
2022-08-23T03:18:48.725Z,5.00
2022-08-23T03:19:48.770Z,4.90
2022-08-23T03:20:48.732Z,4.90
2022-08-23T03:21:48.658Z,5.00
2022-08-23T03:22:54.581Z,4.70
2022-08-23T03:23:49.631Z,4.60
2022-08-23T03:24:48.634Z,4.70
2022-08-23T03:25:48.751Z,5.00
2022-08-23T03:26:48.626Z,4.70
2022-08-23T03:27:48.660Z,4.50
2022-08-23T03:28:48.646Z,4.60
2022-08-23T03:29:48.646Z,4.70
2022-08-23T03:30:48.551Z,4.70
2022-08-23T03:31:48.604Z,4.80
2022-08-23T03:32:49.304Z,4.80
2022-08-23T03:33:48.565Z,5.00
2022-08-23T03:34:48.511Z,5.20
2022-08-23T03:35:48.543Z,4.80
2022-08-23T03:36:48.530Z,5.00
2022-08-23T03:37:50.494Z,5.00
2022-08-23T03:38:49.529Z,4.90
2022-08-23T03:39:48.575Z,5.00
2022-08-23T03:40:48.595Z,4.90
2022-08-23T03:41:48.433Z,4.50
2022-08-23T03:42:48.470Z,4.90
2022-08-23T03:43:48.486Z,5.20
2022-08-23T03:44:48.438Z,4.60
2022-08-23T03:45:48.481Z,4.50
2022-08-23T03:46:48.463Z,4.60
2022-08-23T03:47:48.436Z,4.80
2022-08-23T03:48:48.360Z,4.70
2022-08-23T03:49:48.421Z,5.00
2022-08-23T03:50:48.371Z,4.70
2022-08-23T03:51:48.317Z,4.50
2022-08-23T03:52:48.394Z,4.90
2022-08-23T03:53:48.414Z,4.40
2022-08-23T03:54:48.356Z,4.60
2022-08-23T03:55:48.390Z,4.90
2022-08-23T03:56:48.366Z,4.80
2022-08-23T03:57:48.301Z,4.80
2022-08-23T03:58:48.294Z,4.80
2022-08-23T03:59:48.401Z,4.50
2022-08-23T04:00:48.309Z,4.70
2022-08-23T04:01:48.310Z,4.90
2022-08-23T04:02:48.299Z,4.60
2022-08-23T04:03:48.260Z,4.70
2022-08-23T04:04:48.225Z,4.30
2022-08-23T04:05:48.177Z,4.80
2022-08-23T04:06:48.276Z,4.50
2022-08-23T04:07:48.188Z,4.50
2022-08-23T04:08:48.211Z,4.40
2022-08-23T04:09:51.886Z,4.70
2022-08-23T04:10:49.222Z,5.00
2022-08-23T04:11:48.152Z,5.10
2022-08-23T04:12:48.145Z,5.00
2022-08-23T04:13:48.116Z,4.80
2022-08-23T04:14:48.129Z,4.60
2022-08-23T04:15:48.243Z,5.00
2022-08-23T04:16:48.070Z,4.60
2022-08-23T04:17:48.103Z,4.90
2022-08-23T04:18:48.110Z,4.70
2022-08-23T04:19:48.039Z,4.70
2022-08-23T04:20:48.019Z,4.50
2022-08-23T04:21:48.047Z,4.50
2022-08-23T04:22:48.031Z,4.70
2022-08-23T04:23:48.065Z,4.90
2022-08-23T04:24:47.996Z,4.70
2022-08-23T04:25:48.024Z,4.70
2022-08-23T04:26:49.463Z,4.80
2022-08-23T04:27:47.992Z,4.50
2022-08-23T04:28:47.968Z,5.10
2022-08-23T04:29:47.972Z,4.80
2022-08-23T04:30:47.919Z,5.00
2022-08-23T04:31:48.981Z,4.50
2022-08-23T04:32:48.058Z,4.80
2022-08-23T04:33:52.523Z,4.80
2022-08-23T04:34:51.525Z,4.80
2022-08-23T04:35:47.955Z,4.60
2022-08-23T04:36:47.884Z,5.00
2022-08-23T04:37:47.914Z,5.00
2022-08-23T04:38:47.829Z,4.70
2022-08-23T04:39:47.871Z,4.70
2022-08-23T04:40:47.845Z,4.50
2022-08-23T04:41:47.806Z,4.60
2022-08-23T04:42:47.889Z,4.70
2022-08-23T04:43:47.782Z,4.80
2022-08-23T04:44:47.771Z,5.00
2022-08-23T04:45:47.754Z,4.60
2022-08-23T04:46:47.756Z,4.80
2022-08-23T04:47:47.760Z,4.30
2022-08-23T04:48:47.723Z,4.70
2022-08-23T04:49:47.796Z,4.70
2022-08-23T04:50:47.739Z,4.90
2022-08-23T04:51:54.027Z,5.10
2022-08-23T04:52:48.768Z,5.10
2022-08-23T04:53:47.732Z,4.90
2022-08-23T04:54:47.658Z,4.90
2022-08-23T04:55:47.704Z,5.00
2022-08-23T04:56:51.752Z,5.10
2022-08-23T04:57:47.703Z,4.90
2022-08-23T04:58:47.632Z,5.60
2022-08-23T04:59:47.678Z,4.70
2022-08-23T05:00:51.293Z,4.90
2022-08-23T05:01:47.596Z,5.00
2022-08-23T05:02:47.665Z,5.20
2022-08-23T05:03:47.566Z,5.00
2022-08-23T05:04:47.649Z,5.20
2022-08-23T05:05:47.538Z,5.00
2022-08-23T05:06:47.534Z,5.00
2022-08-23T05:07:47.607Z,5.40
2022-08-23T05:08:47.555Z,5.20
2022-08-23T05:09:47.569Z,5.00
2022-08-23T05:10:47.536Z,5.60
2022-08-23T05:11:47.511Z,5.40
2022-08-23T05:12:47.474Z,5.20
2022-08-23T05:13:47.470Z,5.10
2022-08-23T05:14:47.871Z,4.70
2022-08-23T05:15:47.449Z,5.70
2022-08-23T05:16:47.469Z,5.40
2022-08-23T05:17:47.482Z,4.80
2022-08-23T05:18:47.427Z,5.10
2022-08-23T05:19:47.451Z,5.80
2022-08-23T05:20:47.417Z,5.10
2022-08-23T05:21:47.374Z,5.00
2022-08-23T05:22:47.425Z,5.10
2022-08-23T05:23:51.037Z,5.20
2022-08-23T05:24:48.386Z,5.30
2022-08-23T05:25:47.445Z,5.10
2022-08-23T05:26:47.413Z,4.40
2022-08-23T05:27:47.484Z,5.20
2022-08-23T05:28:47.352Z,4.70
2022-08-23T05:29:47.317Z,5.10
2022-08-23T05:30:56.242Z,4.90
2022-08-23T05:31:49.896Z,4.70
2022-08-23T05:32:47.251Z,4.70
2022-08-23T05:33:47.306Z,4.90
2022-08-23T05:34:47.257Z,4.50
2022-08-23T05:35:47.275Z,5.10
2022-08-23T05:36:48.105Z,4.60
2022-08-23T05:37:48.367Z,4.60
2022-08-23T05:38:47.197Z,4.80
2022-08-23T05:39:47.262Z,4.80
2022-08-23T05:40:47.364Z,5.10
2022-08-23T05:41:48.648Z,5.00
2022-08-23T05:42:47.396Z,4.40
2022-08-23T05:43:48.433Z,4.60
2022-08-23T05:44:47.125Z,4.60
2022-08-23T05:45:48.143Z,4.80
2022-08-23T05:46:48.023Z,5.00
2022-08-23T05:47:47.584Z,4.50
2022-08-23T05:48:47.336Z,4.80
2022-08-23T05:49:47.643Z,5.00
2022-08-23T05:50:47.344Z,5.10
2022-08-23T05:51:47.253Z,4.70
2022-08-23T05:52:50.966Z,5.20
2022-08-23T05:53:47.067Z,4.60
2022-08-23T05:54:47.513Z,4.60
2022-08-23T05:55:47.000Z,4.30
2022-08-23T05:56:47.320Z,4.50
2022-08-23T05:57:47.112Z,4.50
2022-08-23T05:58:47.939Z,4.50
2022-08-23T05:59:46.955Z,5.30
2022-08-23T06:00:47.202Z,4.70
2022-08-23T06:01:47.062Z,4.50
2022-08-23T06:02:46.921Z,4.60
2022-08-23T06:03:47.037Z,5.10
2022-08-23T06:04:46.949Z,4.50
2022-08-23T06:05:47.091Z,4.80
2022-08-23T06:06:46.953Z,4.70
2022-08-23T06:07:46.953Z,4.20
2022-08-23T06:08:47.287Z,4.70
2022-08-23T06:09:46.924Z,4.50
2022-08-23T06:10:46.902Z,4.40
2022-08-23T06:11:46.905Z,4.90
2022-08-23T06:12:46.868Z,4.60
2022-08-23T06:13:46.927Z,5.00
2022-08-23T06:14:46.805Z,4.70
2022-08-23T06:15:46.847Z,4.70
2022-08-23T06:16:46.817Z,4.30
2022-08-23T06:17:46.817Z,4.40
2022-08-23T06:18:46.893Z,4.60
2022-08-23T06:19:46.822Z,4.40
2022-08-23T06:20:46.993Z,4.50
2022-08-23T06:21:46.730Z,4.40
2022-08-23T06:22:46.776Z,4.30
2022-08-23T06:23:46.732Z,4.60
2022-08-23T06:24:46.705Z,4.20
2022-08-23T06:25:46.697Z,4.50
2022-08-23T06:26:46.831Z,4.60
2022-08-23T06:27:46.784Z,4.50
2022-08-23T06:28:51.063Z,4.60
2022-08-23T06:29:46.702Z,4.20
2022-08-23T06:30:46.720Z,4.50
2022-08-23T06:31:46.690Z,4.20
2022-08-23T06:32:46.976Z,4.40
2022-08-23T06:33:46.669Z,4.00
2022-08-23T06:34:46.721Z,4.10
2022-08-23T06:35:46.650Z,4.30
2022-08-23T06:36:46.562Z,4.70
2022-08-23T06:37:46.607Z,4.40
2022-08-23T06:38:46.559Z,4.80
2022-08-23T06:39:46.570Z,4.20
2022-08-23T06:40:46.554Z,4.10
2022-08-23T06:41:46.498Z,5.00
2022-08-23T06:42:46.541Z,4.00
2022-08-23T06:43:48.952Z,4.30
2022-08-23T06:44:46.706Z,4.20
2022-08-23T06:45:50.166Z,5.10
2022-08-23T06:46:47.494Z,4.20
2022-08-23T06:47:46.495Z,4.40
2022-08-23T06:48:46.426Z,4.70
2022-08-23T06:49:54.640Z,4.10
2022-08-23T06:50:47.861Z,4.20
2022-08-23T06:51:46.480Z,4.30
2022-08-23T06:52:46.453Z,4.00
2022-08-23T06:53:46.481Z,4.00
2022-08-23T06:54:46.393Z,3.90
2022-08-23T06:55:46.466Z,3.90
2022-08-23T06:56:46.342Z,3.80
2022-08-23T06:57:46.428Z,4.10
2022-08-23T06:58:46.392Z,3.90
2022-08-23T06:59:46.399Z,3.90
2022-08-23T07:00:46.359Z,4.10
2022-08-23T07:01:47.062Z,3.90
2022-08-23T07:02:46.360Z,3.90
2022-08-23T07:03:46.313Z,4.00
2022-08-23T07:04:46.255Z,3.40
2022-08-23T07:05:46.426Z,4.10
2022-08-23T07:06:46.232Z,3.70
2022-08-23T07:07:46.203Z,3.70
2022-08-23T07:08:46.263Z,3.50
2022-08-23T07:09:46.213Z,3.80
2022-08-23T07:10:46.205Z,3.80
2022-08-23T07:11:46.170Z,3.60
2022-08-23T07:12:46.218Z,3.90
2022-08-23T07:13:46.157Z,3.90
2022-08-23T07:14:46.169Z,3.80
2022-08-23T07:15:50.023Z,3.90
2022-08-23T07:16:46.122Z,3.50
2022-08-23T07:17:46.110Z,3.80
2022-08-23T07:18:46.126Z,3.70
2022-08-23T07:19:46.072Z,3.40
2022-08-23T07:20:46.054Z,3.80
2022-08-23T07:21:46.111Z,3.60
2022-08-23T07:22:46.085Z,3.60
2022-08-23T07:23:46.601Z,3.50
2022-08-23T07:24:46.099Z,3.60
2022-08-23T07:25:46.047Z,3.60
2022-08-23T07:26:46.014Z,3.70
2022-08-23T07:27:46.064Z,3.20
2022-08-23T07:28:46.007Z,3.50
2022-08-23T07:29:45.977Z,3.50
2022-08-23T07:30:46.005Z,3.50
2022-08-23T07:31:45.976Z,3.40
2022-08-23T07:32:45.963Z,3.50
2022-08-23T07:33:45.953Z,3.40
2022-08-23T07:34:45.924Z,3.40
2022-08-23T07:35:45.898Z,3.50
2022-08-23T07:36:45.894Z,3.40
2022-08-23T07:37:45.915Z,3.80
2022-08-23T07:38:45.866Z,3.60
2022-08-23T07:39:45.910Z,3.50
2022-08-23T07:40:45.847Z,3.40
2022-08-23T07:41:46.877Z,3.20
2022-08-23T07:42:45.883Z,3.40
2022-08-23T07:43:45.836Z,3.60
2022-08-23T07:44:45.815Z,3.70
2022-08-23T07:45:45.820Z,3.40
2022-08-23T07:46:45.884Z,3.40
2022-08-23T07:47:50.267Z,3.30
2022-08-23T07:48:55.316Z,3.40
2022-08-23T07:49:46.914Z,3.60
2022-08-23T07:50:57.818Z,3.00
2022-08-23T07:51:46.750Z,3.60
2022-08-23T07:52:45.728Z,3.30
2022-08-23T07:53:46.240Z,3.90
2022-08-23T07:54:48.359Z,3.80
2022-08-23T07:55:45.704Z,4.40
2022-08-23T07:56:45.679Z,3.70
2022-08-23T07:57:45.696Z,3.80
2022-08-23T07:58:45.657Z,3.70
2022-08-23T07:59:45.721Z,3.60
2022-08-23T08:00:45.694Z,3.50
2022-08-23T08:01:45.751Z,3.50
2022-08-23T08:02:45.686Z,3.30
2022-08-23T08:03:45.662Z,3.50
2022-08-23T08:04:45.626Z,3.70
2022-08-23T08:05:45.576Z,3.70
2022-08-23T08:06:45.603Z,3.20
2022-08-23T08:07:45.624Z,3.40
2022-08-23T08:08:45.537Z,3.60
2022-08-23T08:09:45.561Z,3.70
2022-08-23T08:10:45.565Z,3.50
2022-08-23T08:11:45.535Z,3.80
2022-08-23T08:12:45.534Z,3.40
2022-08-23T08:13:45.523Z,3.80
2022-08-23T08:14:45.499Z,3.50
2022-08-23T08:15:45.528Z,3.60
2022-08-23T08:16:45.463Z,3.70
2022-08-23T08:17:45.511Z,4.20
2022-08-23T08:18:45.478Z,3.70
2022-08-23T08:19:45.422Z,3.70
2022-08-23T08:20:45.401Z,3.90
2022-08-23T08:21:45.429Z,3.40
2022-08-23T08:22:48.020Z,3.30
2022-08-23T08:23:45.379Z,3.90
2022-08-23T08:24:45.503Z,3.70
2022-08-23T08:25:45.392Z,3.70
2022-08-23T08:26:45.387Z,3.90
2022-08-23T08:27:45.389Z,3.40
2022-08-23T08:28:45.332Z,3.60
2022-08-23T08:29:45.307Z,3.80
2022-08-23T08:30:45.344Z,3.60
2022-08-23T08:31:45.415Z,3.60
2022-08-23T08:32:47.485Z,3.60
2022-08-23T08:33:45.293Z,3.90
2022-08-23T08:34:45.275Z,3.40
2022-08-23T08:35:45.246Z,3.80
2022-08-23T08:36:45.248Z,3.70
2022-08-23T08:37:45.286Z,3.80
2022-08-23T08:38:50.334Z,3.70
2022-08-23T08:39:46.264Z,3.60
2022-08-23T08:40:45.240Z,3.90
2022-08-23T08:41:45.192Z,3.80
2022-08-23T08:42:45.231Z,4.00
2022-08-23T08:43:45.196Z,4.00
2022-08-23T08:44:45.148Z,3.80
2022-08-23T08:45:45.150Z,3.50
2022-08-23T08:46:46.212Z,4.10
2022-08-23T08:47:45.144Z,3.70
2022-08-23T08:48:45.138Z,3.70
2022-08-23T08:49:45.106Z,3.90
2022-08-23T08:50:45.130Z,3.80
2022-08-23T08:51:45.088Z,3.90
2022-08-23T08:52:45.126Z,3.70
2022-08-23T08:53:45.148Z,3.60
2022-08-23T08:54:48.136Z,3.90
2022-08-23T08:55:45.081Z,3.70
2022-08-23T08:56:45.167Z,3.70
2022-08-23T08:57:45.538Z,3.70
2022-08-23T08:58:44.982Z,3.70
2022-08-23T08:59:45.019Z,3.70
2022-08-23T09:00:46.333Z,3.50
2022-08-23T09:01:45.042Z,3.50
2022-08-23T09:02:45.071Z,3.50
2022-08-23T09:03:46.209Z,3.80
2022-08-23T09:04:44.922Z,3.50
2022-08-23T09:05:44.906Z,3.70
2022-08-23T09:06:44.938Z,3.50
2022-08-23T09:07:44.906Z,3.80
2022-08-23T09:08:44.885Z,3.80
2022-08-23T09:09:44.882Z,3.60
2022-08-23T09:10:44.884Z,3.50
2022-08-23T09:11:47.819Z,3.60
2022-08-23T09:12:45.183Z,3.70
2022-08-23T09:13:46.268Z,4.10
2022-08-23T09:14:44.847Z,3.70
2022-08-23T09:15:45.489Z,3.70
2022-08-23T09:16:46.115Z,3.70
2022-08-23T09:17:44.842Z,3.90
2022-08-23T09:18:44.924Z,3.90
2022-08-23T09:19:44.962Z,3.60
2022-08-23T09:20:44.764Z,3.70
2022-08-23T09:21:44.766Z,3.80
2022-08-23T09:22:44.804Z,3.60
2022-08-23T09:23:44.761Z,3.50
2022-08-23T09:24:44.731Z,4.20
2022-08-23T09:25:44.766Z,3.60
2022-08-23T09:26:44.740Z,3.60
2022-08-23T09:27:45.704Z,3.50
2022-08-23T09:28:44.661Z,3.70
2022-08-23T09:29:44.697Z,3.90
2022-08-23T09:30:44.640Z,3.90
2022-08-23T09:31:44.917Z,3.50
2022-08-23T09:32:44.678Z,3.60
2022-08-23T09:33:44.615Z,3.90
2022-08-23T09:34:44.595Z,3.80
2022-08-23T09:35:44.594Z,3.60
2022-08-23T09:36:44.612Z,3.50
2022-08-23T09:37:44.589Z,3.40
2022-08-23T09:38:44.600Z,3.50
2022-08-23T09:39:44.627Z,3.40
2022-08-23T09:40:44.573Z,3.50
2022-08-23T09:41:44.538Z,3.60
2022-08-23T09:42:44.506Z,3.50
2022-08-23T09:43:44.584Z,4.00
2022-08-23T09:44:44.531Z,3.50
2022-08-23T09:45:44.508Z,3.50
2022-08-23T09:46:44.544Z,3.60
2022-08-23T09:47:44.989Z,3.40
2022-08-23T09:48:44.450Z,3.50
2022-08-23T09:49:44.469Z,3.50
2022-08-23T09:50:44.472Z,3.40
2022-08-23T09:51:44.512Z,3.50
2022-08-23T09:52:44.420Z,3.40
2022-08-23T09:53:44.399Z,3.50
2022-08-23T09:54:47.610Z,3.20
2022-08-23T09:55:44.374Z,3.40
2022-08-23T09:56:44.389Z,3.60
2022-08-23T09:57:44.421Z,3.50
2022-08-23T09:58:44.368Z,3.70
2022-08-23T09:59:44.399Z,3.70
2022-08-23T10:00:44.359Z,3.60
2022-08-23T10:01:44.345Z,3.20
2022-08-23T10:02:44.362Z,3.40
2022-08-23T10:03:44.294Z,3.30
2022-08-23T10:04:44.335Z,3.50
2022-08-23T10:05:44.296Z,3.60
2022-08-23T10:06:44.257Z,3.60
2022-08-23T10:07:44.281Z,3.90
2022-08-23T10:08:44.246Z,3.20
2022-08-23T10:09:44.256Z,3.50
2022-08-23T10:10:44.294Z,3.60
2022-08-23T10:11:44.207Z,3.50
2022-08-23T10:12:44.279Z,3.20
2022-08-23T10:13:44.202Z,3.40
2022-08-23T10:14:44.176Z,3.30
2022-08-23T10:15:44.231Z,3.60
2022-08-23T10:16:44.220Z,3.20
2022-08-23T10:17:44.194Z,3.30
2022-08-23T10:18:44.367Z,3.30
2022-08-23T10:19:44.125Z,3.30
2022-08-23T10:20:44.129Z,3.50
2022-08-23T10:21:44.123Z,3.50
2022-08-23T10:22:44.136Z,3.40
2022-08-23T10:23:44.092Z,3.50
2022-08-23T10:24:44.088Z,3.40
2022-08-23T10:25:44.076Z,4.20
2022-08-23T10:26:44.084Z,3.50
2022-08-23T10:27:44.096Z,3.60
2022-08-23T10:28:44.091Z,3.30
2022-08-23T10:29:44.032Z,3.30
2022-08-23T10:30:44.041Z,3.30
2022-08-23T10:31:44.020Z,3.30
2022-08-23T10:32:44.086Z,3.10
2022-08-23T10:33:43.984Z,3.30
2022-08-23T10:34:47.175Z,3.20
2022-08-23T10:35:45.041Z,3.10
2022-08-23T10:36:43.958Z,3.20
2022-08-23T10:37:43.965Z,3.40
2022-08-23T10:38:43.949Z,3.00
2022-08-23T10:39:43.986Z,3.90
2022-08-23T10:40:43.991Z,5.70
2022-08-23T10:41:43.920Z,4.30
2022-08-23T10:42:43.914Z,3.20
2022-08-23T10:43:43.890Z,3.70
2022-08-23T10:44:43.875Z,4.60
2022-08-23T10:45:43.992Z,3.30
2022-08-23T10:46:43.900Z,3.10
2022-08-23T10:47:43.904Z,3.10
2022-08-23T10:48:43.863Z,3.30
2022-08-23T10:49:43.816Z,3.20
2022-08-23T10:50:43.816Z,3.10
2022-08-23T10:51:44.808Z,3.30
2022-08-23T10:52:43.820Z,3.10
2022-08-23T10:53:43.798Z,3.30
2022-08-23T10:54:43.819Z,3.10
2022-08-23T10:55:43.896Z,3.20
2022-08-23T10:56:48.764Z,2.80
2022-08-23T10:57:44.797Z,3.00
2022-08-23T10:58:43.802Z,2.90
2022-08-23T10:59:43.743Z,3.20
2022-08-23T11:00:43.721Z,3.40
2022-08-23T11:01:43.820Z,3.00
2022-08-23T11:02:43.867Z,3.00
2022-08-23T11:03:43.774Z,3.00
2022-08-23T11:04:43.814Z,2.70
2022-08-23T11:05:43.658Z,2.90
2022-08-23T11:06:43.690Z,3.00
2022-08-23T11:07:43.684Z,3.40
2022-08-23T11:08:47.479Z,2.80
2022-08-23T11:09:43.686Z,3.00
2022-08-23T11:10:53.806Z,3.00
2022-08-23T11:11:44.613Z,2.80
2022-08-23T11:12:43.899Z,2.90
2022-08-23T11:13:43.666Z,2.80
2022-08-23T11:14:43.652Z,2.80
2022-08-23T11:15:44.862Z,2.90
2022-08-23T11:16:43.680Z,2.90
2022-08-23T11:17:43.601Z,2.90
2022-08-23T11:18:43.562Z,3.00
2022-08-23T11:19:43.524Z,2.70
2022-08-23T11:20:43.614Z,2.80
2022-08-23T11:21:43.529Z,2.90
2022-08-23T11:22:43.716Z,3.00
2022-08-23T11:23:43.486Z,2.70
2022-08-23T11:24:43.953Z,3.00
2022-08-23T11:25:43.476Z,2.90
2022-08-23T11:26:43.564Z,3.00
2022-08-23T11:27:43.468Z,3.40
2022-08-23T11:28:43.450Z,3.30
2022-08-23T11:29:43.788Z,3.10
2022-08-23T11:30:43.726Z,3.00
2022-08-23T11:31:43.409Z,3.00
2022-08-23T11:32:43.405Z,3.30
2022-08-23T11:33:43.388Z,3.10
2022-08-23T11:34:43.376Z,2.80
2022-08-23T11:35:44.085Z,2.90
2022-08-23T11:36:43.353Z,3.00
2022-08-23T11:37:43.433Z,3.60
2022-08-23T11:38:43.344Z,3.00
2022-08-23T11:39:43.376Z,3.20
2022-08-23T11:40:43.812Z,3.00
2022-08-23T11:41:43.300Z,2.70
2022-08-23T11:42:43.327Z,2.80
2022-08-23T11:43:43.293Z,3.00
2022-08-23T11:44:43.317Z,3.00
2022-08-23T11:45:43.276Z,3.20
2022-08-23T11:46:43.298Z,2.90
2022-08-23T11:47:44.444Z,3.20
2022-08-23T11:48:43.523Z,3.30
2022-08-23T11:49:43.415Z,3.10
2022-08-23T11:50:43.256Z,2.70
2022-08-23T11:51:43.212Z,3.10
2022-08-23T11:52:43.186Z,3.20
2022-08-23T11:53:43.220Z,2.90
2022-08-23T11:54:43.180Z,2.70
2022-08-23T11:55:43.360Z,2.90
2022-08-23T11:56:46.210Z,3.20
2022-08-23T11:57:43.531Z,2.90
2022-08-23T11:58:43.136Z,3.30
2022-08-23T11:59:43.115Z,2.80
2022-08-23T12:00:43.136Z,2.80
2022-08-23T12:01:43.162Z,2.80
2022-08-23T12:02:43.813Z,2.50
2022-08-23T12:03:43.225Z,2.70
2022-08-23T12:04:43.152Z,2.90
2022-08-23T12:05:43.092Z,3.00
2022-08-23T12:06:43.232Z,3.10
2022-08-23T12:07:44.298Z,3.20
2022-08-23T12:08:43.056Z,2.80
2022-08-23T12:09:43.055Z,2.80
2022-08-23T12:10:43.075Z,3.10
2022-08-23T12:11:43.020Z,2.90
2022-08-23T12:12:47.002Z,2.90
2022-08-23T12:13:43.084Z,2.70
2022-08-23T12:14:43.043Z,3.10
2022-08-23T12:15:43.113Z,2.90
2022-08-23T12:16:49.576Z,2.80
2022-08-23T12:17:44.100Z,2.90
2022-08-23T12:18:42.986Z,2.90
2022-08-23T12:19:42.987Z,2.80
2022-08-23T12:20:42.936Z,3.20
2022-08-23T12:21:43.966Z,2.90
2022-08-23T12:22:42.930Z,2.80
2022-08-23T12:23:42.991Z,3.50
2022-08-23T12:24:43.095Z,3.10
2022-08-23T12:25:42.941Z,3.10
2022-08-23T12:26:42.938Z,3.20
2022-08-23T12:27:42.927Z,3.10
2022-08-23T12:28:43.024Z,2.90
2022-08-23T12:29:42.851Z,3.00
2022-08-23T12:30:44.391Z,2.90
2022-08-23T12:31:42.940Z,2.60
2022-08-23T12:32:44.283Z,3.00
2022-08-23T12:33:43.404Z,2.90
2022-08-23T12:34:42.784Z,3.10
2022-08-23T12:35:42.786Z,2.90
2022-08-23T12:36:42.819Z,3.00
2022-08-23T12:37:42.970Z,2.80
2022-08-23T12:38:42.787Z,2.90
2022-08-23T12:39:42.933Z,3.00
2022-08-23T12:40:42.865Z,2.90
2022-08-23T12:41:43.101Z,2.70
2022-08-23T12:42:43.022Z,2.90
2022-08-23T12:43:42.825Z,3.20
2022-08-23T12:44:42.805Z,3.10
2022-08-23T12:45:42.743Z,2.60
2022-08-23T12:46:42.870Z,3.00
2022-08-23T12:47:43.171Z,2.90
2022-08-23T12:48:42.660Z,2.80
2022-08-23T12:49:42.841Z,2.60
2022-08-23T12:50:43.768Z,2.70
2022-08-23T12:51:42.689Z,2.90
2022-08-23T12:52:42.653Z,2.90
2022-08-23T12:53:45.062Z,2.70
2022-08-23T12:54:42.637Z,3.00
2022-08-23T12:55:42.603Z,3.00
2022-08-23T12:56:42.621Z,3.30
2022-08-23T12:57:42.634Z,3.60
2022-08-23T12:58:42.571Z,3.60
2022-08-23T12:59:42.637Z,3.80
2022-08-23T13:00:42.617Z,6.00
2022-08-23T13:01:42.576Z,4.60
2022-08-23T13:02:42.541Z,4.70
2022-08-23T13:03:42.548Z,4.20
2022-08-23T13:04:43.199Z,3.40
2022-08-23T13:05:42.528Z,3.00
2022-08-23T13:06:42.499Z,3.10
2022-08-23T13:07:42.481Z,2.70
2022-08-23T13:08:42.556Z,2.90
2022-08-23T13:09:42.501Z,3.20
2022-08-23T13:10:42.446Z,2.80
2022-08-23T13:11:42.437Z,2.80
2022-08-23T13:12:42.418Z,3.00
2022-08-23T13:13:42.451Z,3.10
2022-08-23T13:14:42.408Z,3.40
2022-08-23T13:15:42.432Z,3.20
2022-08-23T13:16:42.436Z,3.00
2022-08-23T13:17:42.386Z,3.10
2022-08-23T13:18:42.442Z,3.00
2022-08-23T13:19:42.353Z,3.20